Time;durP1;ratioP1;P1;durP2;ratioP2;P2;SDS_P1;SDS_P2;PMS_P1;PMS_P2;Temp;Humidity;BMP_temperature;BMP_pressure;BME280_temperature;BME280_humidity;BME280_pressure;Samples;Min_cycle;Max_cycle;Signal;HPM_P1;HPM_P2
2023/09/23 00:01:45;;;;;;;4.22;2.80;;;;;;;21.97;63.44;99625.06;4936418;29;20058;-92
2023/09/23 00:04:11;;;;;;;5.28;2.88;;;;;;;21.98;63.92;99626.81;4920491;29;20043;-91
2023/09/23 00:06:37;;;;;;;3.75;2.67;;;;;;;21.82;63.62;99604.56;4952844;29;20080;-92
2023/09/23 00:09:04;;;;;;;7.40;4.55;;;;;;;21.85;64.11;99628.53;4937210;29;20062;-92
2023/09/23 00:11:43;;;;;;;6.13;2.83;;;;;;;21.91;63.76;99620.09;4936459;28;20039;-93
2023/09/23 00:14:11;;;;;;;6.00;3.65;;;;;;;22.16;63.78;99661.50;4955178;28;20358;-92
2023/09/23 00:16:46;;;;;;;3.45;1.98;;;;;;;22.40;63.72;99690.47;4973501;28;20139;-91
2023/09/23 00:19:13;;;;;;;;;;;;;;;22.27;64.44;99680.47;4956575;28;20031;-91
2023/09/23 00:21:39;;;;;;;7.38;4.10;;;;;;;22.13;64.62;99657.19;4949706;28;19975;-92
2023/09/23 00:24:05;;;;;;;2.45;1.80;;;;;;;21.98;64.24;99625.94;4939511;28;20039;-91
2023/09/23 00:26:32;;;;;;;13.02;3.63;;;;;;;22.09;64.05;99607.31;4954899;28;20026;-92
2023/09/23 00:28:58;;;;;;;3.85;2.80;;;;;;;22.21;63.64;99616.41;4972489;28;20035;-92
2023/09/23 00:31:25;;;;;;;6.10;2.90;;;;;;;22.05;63.44;99597.72;4963673;28;20039;-92
2023/09/23 00:33:52;;;;;;;6.43;3.00;;;;;;;22.16;63.70;99626.59;4965040;28;20031;-91
2023/09/23 00:36:19;;;;;;;4.07;2.60;;;;;;;21.93;64.02;99595.81;4955584;28;20042;-95
2023/09/23 00:38:45;;;;;;;15.90;4.22;;;;;;;22.04;64.00;99622.00;4956398;28;20069;-95
2023/09/23 00:41:12;;;;;;;5.82;2.75;;;;;;;22.28;64.49;99674.16;4972156;28;20031;-92
2023/09/23 00:43:48;;;;;;;3.50;2.50;;;;;;;22.02;64.28;99642.72;4930519;28;20026;-96
2023/09/23 00:46:37;;;;;;;3.10;2.15;;;;;;;22.18;64.10;99636.28;4965082;28;20081;-96
2023/09/23 00:49:07;;;;;;;7.90;3.47;;;;;;;22.24;64.13;99661.88;4973423;28;20026;-94
2023/09/23 00:51:37;;;;;;;7.25;3.28;;;;;;;22.31;64.43;99670.44;4947338;28;20043;-96
2023/09/23 00:54:07;;;;;;;8.82;2.67;;;;;;;22.00;64.79;99656.25;4944957;28;20077;-96
2023/09/23 00:56:36;;;;;;;4.72;2.65;;;;;;;22.17;64.69;99669.47;4964104;28;20097;-95
2023/09/23 00:59:17;;;;;;;4.75;2.60;;;;;;;22.16;64.72;99666.88;4950427;28;20065;-96
2023/09/23 01:01:51;;;;;;;6.13;3.08;;;;;;;22.27;64.01;99653.63;4965662;28;20050;-96
2023/09/23 01:04:26;;;;;;;7.25;3.78;;;;;;;22.02;65.23;99667.75;4965498;28;20042;-96
2023/09/23 01:06:53;;;;;;;5.93;3.40;;;;;;;21.93;64.28;99602.06;4952082;28;20054;-93
2023/09/23 01:09:21;;;;;;;9.85;2.80;;;;;;;21.79;64.90;99639.66;4955177;28;20023;-93
2023/09/23 01:11:50;;;;;;;3.25;2.08;;;;;;;21.68;65.19;99623.38;4971918;28;20037;-92
2023/09/23 01:14:21;;;;;;;4.80;2.65;;;;;;;21.82;65.67;99659.09;4952755;28;20041;-93
2023/09/23 01:16:52;;;;;;;8.43;4.60;;;;;;;21.59;66.50;99648.94;4943480;28;20126;-92
2023/09/23 01:19:26;;;;;;;6.60;3.25;;;;;;;21.56;67.05;99647.31;4959480;28;20062;-91
2023/09/23 01:21:53;;;;;;;7.97;4.40;;;;;;;21.70;67.19;99675.13;4973129;28;20035;-93
2023/09/23 01:24:40;;;;;;;5.82;3.00;;;;;;;21.52;67.05;99647.59;4958207;28;20035;-96
2023/09/23 01:27:06;;;;;;;5.50;3.20;;;;;;;21.37;67.05;99606.44;4905320;29;20475;-94
2023/09/23 01:29:34;;;;;;;5.38;3.33;;;;;;;21.69;66.80;99673.38;4886482;29;20093;-95
2023/09/23 01:32:03;;;;;;;9.43;3.53;;;;;;;21.97;66.63;99694.91;4901656;29;20116;-96
2023/09/23 01:34:30;;;;;;;10.18;2.83;;;;;;;21.17;66.95;99595.09;4905976;29;20028;-95
2023/09/23 01:36:56;;;;;;;6.80;3.58;;;;;;;21.40;67.44;99617.84;4890875;29;20056;-95
2023/09/23 01:39:23;;;;;;;5.18;2.63;;;;;;;21.70;67.33;99675.97;4893066;29;20039;-95
2023/09/23 01:41:58;;;;;;;6.22;3.75;;;;;;;21.90;67.07;99696.22;4889043;29;20052;-96
2023/09/23 01:44:23;;;;;;;7.43;3.33;;;;;;;21.90;66.97;99698.06;4884403;29;20049;-96
2023/09/23 01:46:49;;;;;;;5.32;3.35;;;;;;;21.87;66.78;99707.16;4884055;29;20064;-96
2023/09/23 01:49:16;;;;;;;5.10;2.70;;;;;;;21.43;66.90;99636.44;4903495;29;20033;-95
2023/09/23 01:51:44;;;;;;;7.07;3.50;;;;;;;21.43;66.71;99625.69;4898031;29;20060;-94
2023/09/23 01:54:16;;;;;;;5.28;3.10;;;;;;;21.53;66.55;99652.84;4892433;29;20048;-96
2023/09/23 01:56:43;;;;;;;10.15;3.20;;;;;;;21.41;66.25;99600.78;4898383;29;20032;-95
2023/09/23 01:59:09;;;;;;;9.50;3.10;;;;;;;21.32;67.48;99644.28;4920435;29;20104;-95
2023/09/23 02:01:35;;;;;;;7.63;2.97;;;;;;;21.31;67.73;99664.00;4940931;29;20054;-96
2023/09/23 02:04:11;;;;;;;7.15;4.45;;;;;;;21.44;67.75;99667.69;4939652;29;20040;-95
2023/09/23 02:06:53;;;;;;;8.25;2.90;;;;;;;21.56;67.38;99676.81;4946477;29;20046;-95
2023/09/23 02:09:23;;;;;;;7.90;3.72;;;;;;;21.38;67.22;99677.91;4943878;28;20035;-95
2023/09/23 02:11:53;;;;;;;11.65;2.47;;;;;;;21.32;67.38;99671.09;4967795;28;20122;-95
2023/09/23 02:14:20;;;;;;;8.57;3.17;;;;;;;21.27;67.37;99657.09;4963590;28;20031;-94
2023/09/23 02:16:47;;;;;;;6.40;3.33;;;;;;;21.03;67.89;99644.19;4975237;28;20084;-95
2023/09/23 02:19:16;;;;;;;10.77;3.97;;;;;;;20.85;67.63;99605.94;4958072;28;20039;-96
2023/09/23 02:21:41;;;;;;;5.97;3.15;;;;;;;20.85;67.66;99619.34;4945510;28;20075;-95
2023/09/23 02:24:07;;;;;;;5.82;2.45;;;;;;;20.88;68.54;99651.34;4959494;28;20062;-95
2023/09/23 02:26:38;;;;;;;4.65;3.20;;;;;;;21.05;68.88;99679.84;4958189;28;20467;-93
2023/09/23 02:29:07;;;;;;;11.00;3.83;;;;;;;20.97;68.53;99659.78;4943546;28;20133;-95
2023/09/23 02:31:35;;;;;;;9.23;3.05;;;;;;;20.83;68.47;99626.59;4942616;28;20042;-93
2023/09/23 02:34:05;;;;;;;14.55;2.90;;;;;;;20.90;68.41;99603.00;4957712;28;20035;-93
2023/09/23 02:36:34;;;;;;;4.30;2.97;;;;;;;21.08;68.19;99662.69;4976743;28;20026;-94
2023/09/23 02:39:15;;;;;;;4.65;3.70;;;;;;;21.18;68.00;99671.03;4941410;28;20037;-94
2023/09/23 02:41:40;;;;;;;16.52;3.42;;;;;;;21.00;67.90;99648.88;4939370;29;20031;-92
2023/09/23 02:44:19;;;;;;;3.80;2.53;;;;;;;21.10;67.66;99660.78;4939958;29;20047;-96
2023/09/23 02:47:07;;;;;;;3.92;2.17;;;;;;;20.74;67.98;99617.31;4948844;29;20029;-96
2023/09/23 02:49:44;;;;;;;10.98;4.05;;;;;;;20.80;67.68;99610.69;4909660;29;20487;-95
2023/09/23 02:52:12;;;;;;;4.00;2.25;;;;;;;20.64;68.10;99597.31;4884080;29;20051;-95
2023/09/23 02:54:43;;;;;;;4.25;2.55;;;;;;;20.83;68.17;99623.06;4887405;29;20149;-94
2023/09/23 02:57:12;;;;;;;7.18;3.13;;;;;;;20.65;68.46;99633.03;4865750;29;20040;-94
2023/09/23 02:59:41;;;;;;;5.72;2.80;;;;;;;20.93;68.17;99651.94;4889974;29;20041;-95
2023/09/23 03:02:08;;;;;;;5.35;3.28;;;;;;;20.97;67.44;99652.59;4897052;29;20201;-94
2023/09/23 03:04:34;;;;;;;8.68;3.72;;;;;;;20.91;67.17;99629.72;4897030;29;20060;-93
2023/09/23 03:07:04;;;;;;;5.93;2.83;;;;;;;20.91;67.32;99661.88;4879837;29;20041;-93
2023/09/23 03:09:34;;;;;;;7.53;3.03;;;;;;;20.70;66.96;99605.03;4889438;29;20072;-95
2023/09/23 03:12:05;;;;;;;16.15;3.33;;;;;;;21.24;67.37;99730.56;4906582;29;20047;-94
2023/09/23 03:15:03;;;;;;;5.88;2.70;;;;;;;20.65;67.27;99619.63;4884553;29;20048;-93
2023/09/23 03:17:31;;;;;;;7.55;2.85;;;;;;;20.65;67.59;99649.09;4876687;29;20044;-92
2023/09/23 03:20:00;;;;;;;3.42;2.25;;;;;;;20.69;67.72;99666.75;4880128;29;20445;-93
2023/09/23 03:22:25;;;;;;;3.35;2.53;;;;;;;21.07;67.54;99710.09;4883324;29;20044;-93
2023/09/23 03:24:52;;;;;;;6.50;3.65;;;;;;;20.88;67.38;99678.16;4887374;29;20036;-95
2023/09/23 03:27:18;;;;;;;3.83;2.10;;;;;;;20.72;66.84;99624.53;4920279;29;20062;-96
2023/09/23 03:29:46;;;;;;;3.97;2.80;;;;;;;20.69;67.56;99646.16;4903068;29;20040;-95
2023/09/23 03:32:14;;;;;;;5.25;2.78;;;;;;;20.55;67.77;99641.56;4898800;29;20308;-94
2023/09/23 03:34:50;;;;;;;5.28;2.83;;;;;;;20.58;67.91;99629.81;4943852;29;20032;-96
2023/09/23 03:37:20;;;;;;;7.78;2.95;;;;;;;20.68;68.33;99670.38;4875079;29;20043;-93
2023/09/23 03:39:45;;;;;;;28.17;4.03;;;;;;;20.65;68.94;99682.16;4899239;29;20075;-93
2023/09/23 03:42:12;;;;;;;7.45;4.25;;;;;;;20.71;68.52;99688.97;4903893;29;20518;-94
2023/09/23 03:44:52;;;;;;;4.78;3.50;;;;;;;20.49;68.28;99668.72;4916394;29;20649;-95
2023/09/23 03:47:17;;;;;;;6.18;2.67;;;;;;;20.45;68.16;99651.09;4936083;29;20074;-95
2023/09/23 03:49:44;;;;;;;3.80;3.03;;;;;;;20.68;67.88;99698.06;4941263;29;20035;-95
2023/09/23 03:52:55;;;;;;;17.15;2.65;;;;;;;20.76;67.36;99694.94;4936845;29;20050;-94
2023/09/23 03:55:38;;;;;;;3.53;2.47;;;;;;;20.49;67.29;99666.03;4941922;28;20054;-94
2023/09/23 03:58:04;;;;;;;8.55;2.97;;;;;;;20.60;67.53;99702.94;4930180;28;20061;-93
2023/09/23 04:00:39;;;;;;;5.47;3.85;;;;;;;20.79;67.14;99723.38;4972682;28;20034;-93
2023/09/23 04:03:05;;;;;;;6.45;2.47;;;;;;;20.85;67.52;99741.78;4962500;28;20095;-93
2023/09/23 04:05:31;;;;;;;3.63;2.13;;;;;;;20.32;68.45;99687.56;4936775;29;20046;-93
2023/09/23 04:07:57;;;;;;;4.22;2.88;;;;;;;20.46;68.59;99700.16;4905371;29;20071;-92
2023/09/23 04:10:27;;;;;;;7.20;2.85;;;;;;;20.37;68.34;99674.75;4936914;29;20066;-94
2023/09/23 04:13:10;;;;;;;14.93;4.43;;;;;;;20.57;68.72;99738.81;4940847;29;20122;-91
2023/09/23 04:15:35;;;;;;;6.07;3.83;;;;;;;20.20;68.87;99702.47;4956184;28;20055;-91
2023/09/23 04:18:04;;;;;;;4.50;2.88;;;;;;;20.33;68.59;99702.69;4956351;29;20035;-90
2023/09/23 04:20:31;;;;;;;6.65;3.25;;;;;;;20.06;69.40;99713.94;4951732;29;20019;-89
2023/09/23 04:22:57;;;;;;;7.40;4.03;;;;;;;20.12;70.13;99726.13;4978051;28;20038;-89
2023/09/23 04:25:23;;;;;;;13.45;2.58;;;;;;;20.01;69.93;99679.38;4958494;29;20118;-93
2023/09/23 04:27:50;;;;;;;14.45;3.60;;;;;;;20.12;70.04;99724.31;4970146;28;20039;-93
2023/09/23 04:30:16;;;;;;;5.80;2.45;;;;;;;20.53;69.80;99757.84;4954912;28;20034;-90
2023/09/23 04:32:43;;;;;;;10.23;3.67;;;;;;;20.04;69.47;99700.63;4971565;28;20045;-89
2023/09/23 04:35:12;;;;;;;13.45;4.03;;;;;;;20.10;70.00;99714.66;4971226;28;20027;-89
2023/09/23 04:37:39;;;;;;;11.68;3.53;;;;;;;20.17;69.38;99702.63;4961690;28;20035;-90
2023/09/23 04:40:09;;;;;;;7.22;4.68;;;;;;;20.42;69.68;99746.81;4953997;28;20481;-89
2023/09/23 04:42:36;;;;;;;6.32;2.70;;;;;;;20.37;69.97;99739.94;4954641;28;20030;-95
2023/09/23 04:45:03;;;;;;;4.63;2.60;;;;;;;20.29;70.08;99711.81;4954925;28;20035;-92
2023/09/23 04:47:29;;;;;;;7.40;4.78;;;;;;;20.48;70.20;99750.06;4970293;28;20043;-94
2023/09/23 04:50:13;;;;;;;6.03;3.03;;;;;;;20.88;69.57;99782.69;4937565;29;20043;-92
2023/09/23 04:53:19;;;;;;;3.37;2.40;;;;;;;20.97;69.60;99786.66;4969743;29;20035;-96
2023/09/23 04:56:36;;;;;;;12.55;4.22;;;;;;;20.51;69.75;99723.09;4954691;29;20286;-94
2023/09/23 04:59:34;;;;;;;6.10;3.92;;;;;;;20.96;69.75;99770.66;4930504;29;20052;-95
2023/09/23 05:02:00;;;;;;;10.73;5.10;;;;;;;21.08;68.59;99748.50;4912318;29;20127;-93
2023/09/23 05:04:41;;;;;;;7.47;3.72;;;;;;;20.85;69.16;99748.03;4956334;29;20039;-94
2023/09/23 05:07:08;;;;;;;5.78;3.35;;;;;;;20.85;69.47;99755.19;4938293;29;20094;-93
2023/09/23 05:09:34;;;;;;;17.55;3.40;;;;;;;20.79;69.68;99724.25;4933050;29;20043;-95
2023/09/23 05:12:02;;;;;;;11.48;4.72;;;;;;;20.84;69.61;99727.53;4916468;29;20240;-93
2023/09/23 05:14:51;;;;;;;21.55;4.13;;;;;;;21.33;68.89;99753.28;4924905;29;20068;-96
2023/09/23 05:17:22;;;;;;;11.20;3.83;;;;;;;21.38;69.07;99764.63;4923029;29;20103;-90
2023/09/23 05:19:48;;;;;;;7.03;3.80;;;;;;;21.16;68.75;99722.09;4938492;29;20051;-94
2023/09/23 05:22:16;;;;;;;4.28;3.30;;;;;;;21.34;68.62;99740.75;4931274;29;20039;-96
2023/09/23 05:24:47;;;;;;;34.42;4.80;;;;;;;21.42;68.76;99733.97;4884197;29;20058;-93
2023/09/23 05:27:14;;;;;;;4.18;2.90;;;;;;;21.51;68.21;99711.13;4900542;29;20052;-94
2023/09/23 05:29:44;;;;;;;8.30;2.65;;;;;;;21.92;67.77;99771.31;4906604;29;20146;-91
2023/09/23 05:32:10;;;;;;;6.35;2.83;;;;;;;21.94;67.43;99753.31;4938852;28;20394;-92
2023/09/23 05:34:45;;;;;;;8.80;3.45;;;;;;;22.25;68.07;99813.19;4939206;29;20101;-93
2023/09/23 05:37:23;;;;;;;10.80;3.55;;;;;;;22.24;67.12;99771.16;4961033;28;20027;-96
2023/09/23 05:39:53;;;;;;;19.45;4.18;;;;;;;22.13;66.79;99753.88;4943252;28;20049;-93
2023/09/23 05:42:23;;;;;;;10.55;4.80;;;;;;;22.25;66.93;99751.41;4953766;28;20042;-92
2023/09/23 05:44:49;;;;;;;7.20;4.15;;;;;;;22.61;65.71;99779.63;4962976;28;20088;-91
2023/09/23 05:47:15;;;;;;;14.07;4.68;;;;;;;22.84;65.96;99808.59;4962559;28;20066;-90
2023/09/23 05:49:42;;;;;;;3.83;3.05;;;;;;;22.83;65.20;99777.31;4958563;28;20027;-90
2023/09/23 05:52:08;;;;;;;9.90;4.45;;;;;;;22.86;65.00;99769.03;4938464;28;20122;-91
2023/09/23 05:54:34;;;;;;;4.65;2.83;;;;;;;23.03;64.76;99758.97;4952000;28;20110;-89
2023/09/23 05:57:01;;;;;;;5.60;3.75;;;;;;;23.41;64.25;99766.38;4958419;28;20027;-90
2023/09/23 05:59:26;;;;;;;25.00;4.25;;;;;;;23.37;63.53;99752.28;4958747;28;20030;-91
2023/09/23 06:01:52;;;;;;;6.05;3.63;;;;;;;23.68;62.77;99758.25;4954858;28;20410;-92
2023/09/23 06:04:18;;;;;;;11.55;2.63;;;;;;;23.92;61.65;99768.31;4963425;28;20399;-92
2023/09/23 06:06:43;;;;;;;4.70;2.65;;;;;;;24.57;60.70;99833.88;4962321;28;20029;-92
2023/09/23 06:09:09;;;;;;;5.50;2.95;;;;;;;24.26;60.48;99803.69;4940327;28;20391;-92
2023/09/23 06:11:35;;;;;;;8.10;2.85;;;;;;;24.04;60.10;99758.53;4958675;28;20426;-89
2023/09/23 06:14:01;;;;;;;4.20;2.53;;;;;;;24.26;59.56;99792.91;4957450;28;20118;-90
2023/09/23 06:16:29;;;;;;;7.47;3.75;;;;;;;24.38;59.70;99780.41;4964829;28;20069;-92
2023/09/23 06:18:54;;;;;;;19.55;3.38;;;;;;;24.25;59.00;99754.31;4946779;28;20514;-88
2023/09/23 06:21:21;;;;;;;3.30;1.92;;;;;;;24.53;58.62;99776.63;4962503;28;20090;-96
2023/09/23 06:23:56;;;;;;;5.10;2.35;;;;;;;24.41;57.85;99727.13;4948123;28;20039;-96
2023/09/23 06:26:23;;;;;;;6.13;1.92;;;;;;;24.82;57.66;99800.63;4947329;28;20037;-92
2023/09/23 06:29:09;;;;;;;11.82;2.95;;;;;;;24.79;57.63;99768.47;5020554;23;20078;-96
2023/09/23 06:31:36;;;;;;;9.52;2.40;;;;;;;25.50;56.12;99801.94;4926679;29;20059;-93
2023/09/23 06:34:02;;;;;;;8.80;3.03;;;;;;;25.71;54.79;99760.75;4936995;29;20075;-94
2023/09/23 06:36:27;;;;;;;27.00;4.43;;;;;;;25.69;54.07;99763.56;4922419;29;20075;-89
2023/09/23 06:38:56;;;;;;;9.30;2.90;;;;;;;26.23;54.02;99818.88;4941523;29;20036;-95
2023/09/23 06:41:28;;;;;;;9.30;2.25;;;;;;;26.21;54.06;99764.06;4932223;29;20047;-95
2023/09/23 06:43:54;;;;;;;5.57;2.63;;;;;;;26.43;51.86;99773.16;4932002;29;20102;-96
2023/09/23 06:46:30;;;;;;;6.05;2.83;;;;;;;26.41;50.95;99758.91;4911119;29;20553;-95
2023/09/23 06:48:56;;;;;;;11.55;3.00;;;;;;;26.85;51.74;99761.72;4924080;29;20062;-92
2023/09/23 06:51:27;;;;;;;3.83;2.25;;;;;;;26.98;51.23;99767.84;4957994;29;20026;-91
2023/09/23 06:53:52;;;;;;;2.67;2.10;;;;;;;27.28;49.76;99815.88;4957614;29;20049;-92
2023/09/23 06:56:21;;;;;;;8.07;2.85;;;;;;;27.34;49.02;99776.63;4939815;29;20403;-94
2023/09/23 06:58:54;;;;;;;9.10;3.08;;;;;;;27.42;49.54;99830.13;4949965;29;20123;-92
2023/09/23 07:01:21;;;;;;;6.03;3.00;;;;;;;27.15;48.25;99750.19;4919737;29;20130;-95
2023/09/23 07:03:49;;;;;;;6.05;2.35;;;;;;;27.33;48.46;99767.66;4918663;29;20442;-94
2023/09/23 07:06:16;;;;;;;3.30;2.05;;;;;;;27.59;48.52;99793.50;4919522;29;20035;-91
2023/09/23 07:08:42;;;;;;;4.43;2.85;;;;;;;27.50;48.58;99779.75;4940882;29;20043;-95
2023/09/23 07:11:25;;;;;;;4.75;2.22;;;;;;;27.87;48.23;99819.13;4917531;29;20035;-92
2023/09/23 07:14:03;;;;;;;8.13;4.00;;;;;;;27.87;47.56;99779.34;4930189;29;20122;-94
2023/09/23 07:16:38;;;;;;;5.68;2.80;;;;;;;27.89;47.32;99771.06;4933965;29;20036;-94
2023/09/23 07:19:26;;;;;;;12.48;2.80;;;;;;;28.17;47.57;99844.63;4923226;29;20059;-94
2023/09/23 07:21:51;;;;;;;7.25;2.92;;;;;;;28.55;46.22;99849.41;4946094;29;20481;-92
2023/09/23 07:24:17;;;;;;;8.43;3.58;;;;;;;28.40;46.03;99800.06;4953235;29;20130;-92
2023/09/23 07:26:42;;;;;;;6.50;2.80;;;;;;;28.15;45.94;99804.09;4943765;29;20032;-92
2023/09/23 07:29:08;;;;;;;11.65;3.22;;;;;;;28.36;45.36;99793.22;4943114;29;20028;-93
2023/09/23 07:31:34;;;;;;;11.10;4.85;;;;;;;28.67;44.21;99781.50;4949312;29;20050;-91
2023/09/23 07:34:01;;;;;;;8.80;3.28;;;;;;;29.01;44.74;99811.03;4940540;29;20039;-91
2023/09/23 07:36:27;;;;;;;3.65;2.05;;;;;;;28.92;44.13;99791.88;4950521;29;20035;-91
2023/09/23 07:38:53;;;;;;;7.00;3.22;;;;;;;29.16;44.01;99819.66;4938029;29;20052;-90
2023/09/23 07:41:18;;;;;;;20.77;3.58;;;;;;;28.91;43.79;99805.59;4916305;29;20067;-93
2023/09/23 07:43:44;;;;;;;6.88;3.35;;;;;;;29.20;44.95;99840.16;4931958;29;20042;-92
2023/09/23 07:46:09;;;;;;;4.50;2.42;;;;;;;29.30;43.10;99808.41;4933243;29;20038;-94
2023/09/23 07:48:35;;;;;;;7.13;3.10;;;;;;;29.74;42.18;99827.91;4933423;29;20049;-93
2023/09/23 07:51:00;;;;;;;8.15;3.90;;;;;;;29.43;42.33;99795.44;4933120;29;20122;-93
2023/09/23 07:53:26;;;;;;;5.25;2.75;;;;;;;30.00;41.66;99827.34;4932881;29;20139;-92
2023/09/23 07:55:51;;;;;;;11.30;3.10;;;;;;;30.52;41.18;99844.16;4916167;29;20040;-92
2023/09/23 07:58:17;;;;;;;15.68;5.05;;;;;;;29.93;42.76;99805.28;4932969;29;20039;-92
2023/09/23 08:00:43;;;;;;;11.77;3.90;;;;;;;29.95;41.73;99761.66;4933511;29;20035;-93
2023/09/23 08:03:08;;;;;;;4.72;2.90;;;;;;;30.50;40.58;99769.94;4932745;29;20063;-92
2023/09/23 08:05:34;;;;;;;5.97;2.97;;;;;;;30.58;39.60;99771.91;4934365;29;20055;-93
2023/09/23 08:07:59;;;;;;;12.30;3.33;;;;;;;30.98;39.25;99830.66;4933061;29;20044;-91
2023/09/23 08:10:25;;;;;;;9.07;3.05;;;;;;;31.25;38.28;99785.34;4917282;29;20047;-88
2023/09/23 08:12:51;;;;;;;6.15;2.80;;;;;;;30.99;38.78;99790.66;4917416;29;20118;-93
2023/09/23 08:15:16;;;;;;;4.45;3.05;;;;;;;30.66;39.51;99788.38;4933115;29;20044;-92
2023/09/23 08:17:44;;;;;;;5.78;2.35;;;;;;;30.35;39.09;99755.09;4934168;29;20466;-94
2023/09/23 08:20:21;;;;;;;7.50;3.50;;;;;;;30.22;39.54;99746.41;4945423;29;20032;-94
2023/09/23 08:22:48;;;;;;;4.97;2.67;;;;;;;30.53;40.06;99763.34;4933838;29;20094;-94
2023/09/23 08:25:15;;;;;;;10.98;2.42;;;;;;;30.76;39.10;99760.25;4932722;29;20039;-94
2023/09/23 08:27:46;;;;;;;8.07;3.28;;;;;;;30.88;39.17;99789.84;4923545;29;20039;-96
2023/09/23 08:30:16;;;;;;;10.93;3.25;;;;;;;30.96;40.28;99780.06;4946878;29;20129;-94
2023/09/23 08:32:43;;;;;;;8.25;2.97;;;;;;;31.01;38.93;99748.63;4906142;29;20047;-95
2023/09/23 08:35:09;;;;;;;16.80;4.20;;;;;;;31.17;38.33;99747.97;4916566;29;20036;-89
2023/09/23 08:37:35;;;;;;;5.05;2.35;;;;;;;31.29;37.39;99734.94;4917375;29;20056;-94
2023/09/23 08:40:11;;;;;;;26.13;3.47;;;;;;;31.18;37.23;99749.66;4915479;29;20044;-92
2023/09/23 08:42:38;;;;;;;6.28;2.88;;;;;;;31.15;37.08;99755.41;4932128;29;20439;-91
2023/09/23 08:45:09;;;;;;;6.15;2.70;;;;;;;31.16;37.01;99743.53;4915822;29;20035;-96
2023/09/23 08:47:38;;;;;;;5.75;2.80;;;;;;;31.27;38.50;99730.69;4900392;29;20111;-94
2023/09/23 08:50:10;;;;;;;13.50;2.42;;;;;;;31.48;38.18;99773.97;4933546;29;20139;-95
2023/09/23 08:52:36;;;;;;;7.80;2.40;;;;;;;31.19;38.16;99724.16;4915852;29;20039;-94
2023/09/23 08:55:07;;;;;;;7.38;2.35;;;;;;;31.38;37.44;99736.75;4932735;29;20035;-96
2023/09/23 08:57:33;;;;;;;5.65;2.35;;;;;;;31.01;37.53;99724.13;4916262;29;20491;-93
2023/09/23 09:00:01;;;;;;;9.30;2.25;;;;;;;30.98;38.12;99751.66;4932306;29;20042;-90
2023/09/23 09:02:32;;;;;;;7.07;2.20;;;;;;;30.95;37.88;99721.13;4915495;29;20479;-93
2023/09/23 09:04:59;;;;;;;7.38;3.85;;;;;;;31.30;37.57;99785.72;4929408;29;20052;-93
2023/09/23 09:07:47;;;;;;;5.60;3.05;;;;;;;31.21;37.86;99749.34;4936061;29;20036;-92
2023/09/23 09:10:17;;;;;;;14.32;4.00;;;;;;;31.26;36.84;99745.31;4944566;29;20055;-95
2023/09/23 09:12:42;;;;;;;9.20;3.03;;;;;;;31.01;36.86;99696.03;4906312;29;20043;-95
2023/09/23 09:15:08;;;;;;;9.07;3.65;;;;;;;31.18;37.36;99718.84;4919111;29;20036;-94
2023/09/23 09:17:35;;;;;;;6.07;2.58;;;;;;;31.31;36.60;99721.19;4919972;29;20422;-94
2023/09/23 09:20:12;;;;;;;5.00;2.28;;;;;;;31.61;37.17;99732.72;4924150;29;20044;-96
2023/09/23 09:22:40;;;;;;;5.60;3.15;;;;;;;31.20;36.98;99668.66;4940063;29;20470;-95
2023/09/23 09:25:11;;;;;;;4.20;2.08;;;;;;;31.05;36.35;99679.25;4937375;29;20035;-94
2023/09/23 09:27:42;;;;;;;6.07;3.10;;;;;;;30.86;37.13;99676.63;4937212;29;20380;-95
2023/09/23 09:30:11;;;;;;;5.47;2.55;;;;;;;31.17;36.31;99679.88;4916518;29;20420;-95
2023/09/23 09:32:42;;;;;;;3.53;2.63;;;;;;;31.25;35.85;99700.88;4916170;29;20040;-93
2023/09/23 09:35:31;;;;;;;7.28;2.47;;;;;;;31.19;36.14;99674.25;4935928;29;20090;-93
2023/09/23 09:38:10;;;;;;;10.18;2.67;;;;;;;31.09;36.36;99655.25;4938905;29;20036;-94
2023/09/23 09:40:36;;;;;;;5.50;2.25;;;;;;;31.34;36.48;99688.16;4919123;29;20514;-90
2023/09/23 09:43:04;;;;;;;4.68;2.92;;;;;;;31.21;37.33;99686.69;4937398;29;20031;-93
2023/09/23 09:45:34;;;;;;;3.95;2.70;;;;;;;31.36;36.30;99686.16;4935935;29;20375;-93
2023/09/23 09:48:03;;;;;;;5.05;1.90;;;;;;;31.25;35.74;99660.03;4935102;29;20042;-89
2023/09/23 09:50:32;;;;;;;10.50;3.35;;;;;;;31.33;36.28;99657.34;4934347;29;20095;-89
2023/09/23 09:52:58;;;;;;;7.53;2.03;;;;;;;31.51;35.05;99670.06;4918746;29;20036;-89
2023/09/23 09:55:24;;;;;;;7.70;1.73;;;;;;;31.75;35.68;99678.47;4934837;29;20833;-86
2023/09/23 09:57:52;;;;;;;5.30;1.83;;;;;;;31.49;36.19;99653.88;4918374;29;20165;-91
2023/09/23 10:02:56;;;;;;;8.10;3.00;;;;;;;31.76;36.08;99680.19;4954405;29;20045;-85
2023/09/23 10:05:22;;;;;;;8.43;2.85;;;;;;;31.97;35.93;99686.28;4937142;29;20105;-87
2023/09/23 10:07:53;;;;;;;5.63;2.92;;;;;;;31.76;36.16;99635.69;4953720;29;20494;-86
2023/09/23 10:10:30;;;;;;;13.23;3.15;;;;;;;32.25;35.34;99686.94;4939143;29;20502;-88
2023/09/23 10:12:56;;;;;;;4.13;2.33;;;;;;;32.01;35.64;99644.00;4912935;29;20430;-91
2023/09/23 10:15:28;;;;;;;2.80;2.30;;;;;;;31.84;35.84;99638.47;4943777;29;20059;-90
2023/09/23 10:17:54;;;;;;;6.82;1.23;;;;;;;31.76;35.73;99642.00;4918168;29;20170;-89
2023/09/23 10:20:24;;;;;;;4.85;2.63;;;;;;;31.95;35.66;99631.88;4943867;29;20039;-88
2023/09/23 10:22:52;;;;;;;4.28;2.83;;;;;;;32.22;35.66;99624.53;4949417;29;20042;-87
2023/09/23 10:25:18;;;;;;;4.07;2.35;;;;;;;32.48;35.22;99617.09;4941382;29;20084;-88
2023/09/23 10:27:56;;;;;;;4.13;1.92;;;;;;;32.39;35.29;99600.88;4933740;29;20039;-87
2023/09/23 10:30:26;;;;;;;10.23;4.03;;;;;;;32.42;35.16;99627.81;4937372;29;20103;-89
2023/09/23 10:32:51;;;;;;;3.97;2.10;;;;;;;32.43;35.12;99585.88;4947207;29;20035;-88
2023/09/23 10:35:26;;;;;;;4.18;1.80;;;;;;;32.37;35.13;99589.28;4938116;29;20039;-92
2023/09/23 10:37:52;;;;;;;8.98;2.38;;;;;;;32.33;35.02;99576.97;4933253;29;20883;-88
2023/09/23 10:40:18;;;;;;;4.97;1.77;;;;;;;32.55;34.91;99616.41;4944730;29;20051;-93
2023/09/23 10:42:46;;;;;;;6.20;2.33;;;;;;;32.91;34.86;99608.00;4934481;29;20167;-95
2023/09/23 10:45:14;;;;;;;9.13;2.15;;;;;;;32.87;34.22;99573.84;4943175;29;20115;-85
2023/09/23 10:47:43;;;;;;;5.28;2.60;;;;;;;32.80;34.59;99571.78;4933155;29;20030;-94
2023/09/23 10:50:10;;;;;;;4.25;2.47;;;;;;;33.09;34.04;99610.53;4918092;29;20547;-89
2023/09/23 10:52:35;;;;;;;4.82;1.67;;;;;;;32.65;34.35;99568.88;4922937;29;20028;-93
2023/09/23 10:55:01;;;;;;;5.05;1.80;;;;;;;32.59;33.50;99561.31;4926388;29;20102;-91
2023/09/23 10:57:29;;;;;;;7.63;3.72;;;;;;;32.57;33.61;99530.63;4935400;29;20467;-92
2023/09/23 10:59:56;;;;;;;7.63;4.05;;;;;;;33.20;33.29;99593.84;4934307;29;20032;-91
2023/09/23 11:02:25;;;;;;;3.28;1.67;;;;;;;32.82;33.50;99530.66;4932859;29;20929;-91
2023/09/23 11:04:54;;;;;;;6.75;2.25;;;;;;;32.92;33.78;99523.16;4916474;29;20142;-90
2023/09/23 11:07:20;;;;;;;5.15;3.50;;;;;;;33.12;32.82;99541.88;4933207;29;20044;-89
2023/09/23 11:09:47;;;;;;;6.90;2.70;;;;;;;33.23;33.30;99584.44;4934009;29;20039;-89
2023/09/23 11:12:15;;;;;;;7.45;3.30;;;;;;;33.09;33.20;99558.63;4937439;29;20027;-89
2023/09/23 11:14:48;;;;;;;7.40;3.80;;;;;;;33.18;33.16;99536.63;4942641;29;20131;-88
2023/09/23 11:17:26;;;;;;;5.78;3.22;;;;;;;33.40;33.17;99593.47;4933893;29;20062;-91
2023/09/23 11:19:56;;;;;;;4.30;1.92;;;;;;;33.42;33.72;99548.53;4933742;29;20387;-88
2023/09/23 11:22:25;;;;;;;14.23;3.22;;;;;;;33.54;32.95;99521.69;4933713;29;20455;-88
2023/09/23 11:24:51;;;;;;;9.82;4.00;;;;;;;33.86;32.44;99541.75;4934147;29;20067;-90
2023/09/23 11:27:17;;;;;;;13.32;4.15;;;;;;;34.08;32.40;99546.44;4900483;29;20067;-89
2023/09/23 11:29:43;;;;;;;4.32;2.35;;;;;;;33.78;31.66;99560.94;4943400;29;20133;-92
2023/09/23 11:32:10;;;;;;;6.78;4.65;;;;;;;33.87;31.54;99536.09;4919080;29;20539;-88
2023/09/23 11:34:36;;;;;;;5.57;2.97;;;;;;;34.07;31.55;99531.03;4935529;29;20035;-93
2023/09/23 11:37:02;;;;;;;8.93;2.17;;;;;;;33.73;31.85;99488.47;4935245;29;20057;-88
2023/09/23 11:39:32;;;;;;;8.10;4.07;;;;;;;33.90;32.14;99500.19;4952116;29;20125;-90
2023/09/23 11:41:58;;;;;;;7.95;3.08;;;;;;;34.06;30.94;99518.41;4939431;29;20031;-89
2023/09/23 11:44:25;;;;;;;3.10;2.53;;;;;;;33.98;31.19;99479.28;4933566;29;20065;-88
2023/09/23 11:46:50;;;;;;;4.15;2.58;;;;;;;34.37;31.08;99555.88;4925542;29;20046;-89